createdAt,value
2022-12-20T00:02:07.539Z,5.70
2022-12-20T00:04:35.725Z,5.80
2022-12-20T00:07:05.067Z,5.80
2022-12-20T00:09:33.084Z,5.80
2022-12-20T00:12:01.094Z,5.80
2022-12-20T00:14:29.117Z,5.80
2022-12-20T00:16:57.159Z,5.80
2022-12-20T00:19:25.212Z,5.80
2022-12-20T00:21:53.780Z,5.90
2022-12-20T00:24:26.261Z,5.90
2022-12-20T00:26:54.674Z,5.90
2022-12-20T00:29:22.776Z,5.80
2022-12-20T00:31:50.858Z,5.90
2022-12-20T00:34:18.910Z,5.90
2022-12-20T00:36:46.979Z,5.90
2022-12-20T00:39:14.983Z,5.90
2022-12-20T00:41:44.614Z,5.90
2022-12-20T00:44:12.748Z,5.90
2022-12-20T00:46:40.786Z,5.90
2022-12-20T00:49:08.830Z,5.90
2022-12-20T00:51:36.829Z,5.90
2022-12-20T00:54:04.933Z,5.90
2022-12-20T00:56:32.973Z,5.90
2022-12-20T00:59:02.379Z,5.90
2022-12-20T01:01:31.925Z,5.90
2022-12-20T01:04:00.479Z,5.90
2022-12-20T01:06:29.812Z,6.00
2022-12-20T01:08:58.282Z,6.00
2022-12-20T01:11:27.893Z,6.00
2022-12-20T01:13:57.957Z,6.00
2022-12-20T01:16:29.690Z,6.00
2022-12-20T01:18:58.003Z,6.00
2022-12-20T01:21:28.846Z,6.00
2022-12-20T01:23:58.282Z,6.00
2022-12-20T01:26:28.624Z,6.00
2022-12-20T01:28:58.638Z,6.00
2022-12-20T01:31:30.268Z,6.00
2022-12-20T01:33:58.505Z,6.10
2022-12-20T01:36:28.353Z,6.10
2022-12-20T01:38:58.638Z,6.10
2022-12-20T01:41:27.143Z,6.10
2022-12-20T01:43:56.503Z,6.10
2022-12-20T01:46:25.881Z,6.10
2022-12-20T01:48:59.943Z,6.10
2022-12-20T01:51:30.895Z,6.10
2022-12-20T01:54:04.482Z,6.10
2022-12-20T01:56:32.538Z,6.20
2022-12-20T01:59:01.969Z,6.20
2022-12-20T02:01:30.185Z,6.20
2022-12-20T02:03:59.726Z,6.20
2022-12-20T02:06:28.858Z,6.20
2022-12-20T02:09:00.280Z,6.20
2022-12-20T02:11:57.918Z,6.20
2022-12-20T02:14:43.251Z,6.30
2022-12-20T02:17:19.704Z,6.30
2022-12-20T02:20:15.472Z,6.30
2022-12-20T02:23:01.550Z,6.40
2022-12-20T02:25:45.945Z,6.40
2022-12-20T02:28:28.381Z,6.40
2022-12-20T02:31:01.367Z,6.40
2022-12-20T02:33:29.937Z,6.40
2022-12-20T02:35:57.988Z,6.40
2022-12-20T02:38:28.945Z,6.40
2022-12-20T02:41:01.572Z,6.50
2022-12-20T02:43:51.340Z,6.50
2022-12-20T02:46:22.127Z,6.50
2022-12-20T02:48:52.277Z,6.50
2022-12-20T02:51:22.608Z,6.50
2022-12-20T02:53:51.502Z,6.60
2022-12-20T02:56:24.069Z,6.60
2022-12-20T02:58:55.576Z,6.60
2022-12-20T03:01:29.435Z,6.60
2022-12-20T03:03:59.765Z,6.60
2022-12-20T03:06:29.593Z,6.60
2022-12-20T03:08:57.685Z,6.60
2022-12-20T03:11:25.700Z,6.70
2022-12-20T03:13:53.923Z,6.70
2022-12-20T03:16:22.084Z,6.70
2022-12-20T03:18:51.541Z,6.70
2022-12-20T03:21:19.520Z,6.70
2022-12-20T03:23:47.558Z,6.70
2022-12-20T03:26:15.580Z,6.70
2022-12-20T03:28:43.581Z,6.70
2022-12-20T03:31:11.673Z,6.70
2022-12-20T03:33:39.685Z,6.70
2022-12-20T03:36:09.633Z,6.70
2022-12-20T03:38:37.617Z,6.70
2022-12-20T03:41:05.722Z,6.70
2022-12-20T03:43:33.780Z,6.70
2022-12-20T03:46:01.844Z,6.70
2022-12-20T03:48:29.841Z,6.70
2022-12-20T03:50:57.854Z,6.70
2022-12-20T03:53:27.222Z,6.70
2022-12-20T03:55:55.298Z,6.70
2022-12-20T03:58:23.296Z,6.70
2022-12-20T04:00:51.290Z,6.80
2022-12-20T04:03:19.533Z,6.80
2022-12-20T04:05:47.655Z,6.80
2022-12-20T04:08:15.708Z,6.80
2022-12-20T04:10:58.987Z,6.80
2022-12-20T04:13:27.003Z,6.80
2022-12-20T04:15:59.992Z,6.80
2022-12-20T04:18:28.832Z,6.80
2022-12-20T04:20:56.851Z,6.80
2022-12-20T04:23:24.838Z,6.80
2022-12-20T04:25:54.264Z,6.80
2022-12-20T04:28:22.517Z,6.80
2022-12-20T04:30:50.606Z,6.90
2022-12-20T04:33:18.634Z,6.90
2022-12-20T04:35:46.664Z,6.90
2022-12-20T04:38:14.934Z,6.90
2022-12-20T04:40:43.473Z,6.90
2022-12-20T04:43:12.867Z,6.90
2022-12-20T04:45:40.974Z,6.90
2022-12-20T04:48:37.094Z,6.90
2022-12-20T04:50:57.829Z,7.00
2022-12-20T04:53:43.621Z,7.00
2022-12-20T04:56:11.671Z,7.00
2022-12-20T04:58:41.050Z,7.00
2022-12-20T05:01:09.214Z,7.00
2022-12-20T05:03:37.384Z,7.00
2022-12-20T05:06:05.747Z,7.00
2022-12-20T05:08:34.366Z,7.00
2022-12-20T05:11:02.621Z,7.00
2022-12-20T05:13:31.030Z,7.00
2022-12-20T05:16:00.489Z,7.00
2022-12-20T05:18:29.640Z,7.00
2022-12-20T05:21:16.110Z,7.00
2022-12-20T05:24:01.752Z,7.00
2022-12-20T05:26:32.240Z,7.00
2022-12-20T05:29:00.383Z,7.00
2022-12-20T05:31:29.775Z,7.00
2022-12-20T05:33:57.877Z,7.00
2022-12-20T05:36:25.891Z,7.00
2022-12-20T05:39:01.757Z,7.00
2022-12-20T05:41:31.924Z,7.00
2022-12-20T05:43:59.977Z,7.00
2022-12-20T05:46:29.352Z,6.90
2022-12-20T05:48:57.510Z,7.00
2022-12-20T05:51:25.819Z,6.90
2022-12-20T05:53:53.924Z,6.90
2022-12-20T05:56:21.995Z,6.90
2022-12-20T05:58:50.053Z,6.90
2022-12-20T06:01:18.385Z,6.90
2022-12-20T06:03:47.903Z,6.90
2022-12-20T06:06:16.048Z,6.90
2022-12-20T06:08:44.116Z,6.90
2022-12-20T06:11:12.093Z,6.90
2022-12-20T06:13:40.112Z,6.90
2022-12-20T06:16:08.632Z,6.90
2022-12-20T06:18:36.816Z,7.00
2022-12-20T06:21:06.549Z,7.00
2022-12-20T06:23:35.775Z,7.00
2022-12-20T06:26:04.746Z,7.00
2022-12-20T06:28:32.754Z,7.00
2022-12-20T06:31:00.763Z,7.00
2022-12-20T06:33:28.749Z,7.00
2022-12-20T06:35:56.744Z,7.00
2022-12-20T06:38:26.277Z,7.10
2022-12-20T06:40:54.269Z,7.00
2022-12-20T06:43:22.283Z,7.00
2022-12-20T06:45:50.316Z,7.00
2022-12-20T06:48:18.403Z,7.00
2022-12-20T06:50:50.736Z,7.00
2022-12-20T06:53:24.798Z,7.00
2022-12-20T06:55:53.029Z,7.00
2022-12-20T06:58:21.942Z,7.00
2022-12-20T07:00:50.179Z,7.10
2022-12-20T07:03:18.347Z,7.10
2022-12-20T07:05:46.503Z,7.10
2022-12-20T07:08:14.491Z,7.20
2022-12-20T07:10:43.904Z,7.20
2022-12-20T07:13:11.948Z,7.20
2022-12-20T07:15:40.147Z,7.30
2022-12-20T07:18:08.208Z,7.30
2022-12-20T07:20:36.726Z,7.30
2022-12-20T07:23:05.135Z,7.40
2022-12-20T07:25:33.132Z,7.40
2022-12-20T07:28:03.382Z,7.40
2022-12-20T07:30:31.490Z,7.40
2022-12-20T07:33:00.435Z,7.40
2022-12-20T07:35:28.482Z,7.40
2022-12-20T07:37:56.466Z,7.30
2022-12-20T07:40:24.480Z,7.40
2022-12-20T07:42:52.755Z,7.40
2022-12-20T07:45:22.169Z,7.40
2022-12-20T07:47:50.169Z,7.40
2022-12-20T07:50:18.298Z,7.40
2022-12-20T07:52:48.210Z,7.30
2022-12-20T07:55:16.457Z,7.40
2022-12-20T07:57:47.075Z,7.40
2022-12-20T08:00:16.404Z,7.40
2022-12-20T08:02:49.134Z,7.40
2022-12-20T08:05:18.062Z,7.40
2022-12-20T08:07:48.555Z,7.40
2022-12-20T08:10:20.682Z,7.40
2022-12-20T08:12:49.826Z,7.40
2022-12-20T08:15:19.320Z,7.40
2022-12-20T08:17:49.004Z,7.40
2022-12-20T08:20:17.179Z,7.40
2022-12-20T08:22:45.201Z,7.40
2022-12-20T08:25:13.231Z,7.40
2022-12-20T08:27:43.525Z,7.40
2022-12-20T08:30:12.712Z,7.50
2022-12-20T08:32:40.838Z,7.50
2022-12-20T08:35:10.464Z,7.50
2022-12-20T08:37:38.451Z,7.50
2022-12-20T08:40:08.829Z,7.50
2022-12-20T08:42:36.820Z,7.50
2022-12-20T08:45:05.557Z,7.50
2022-12-20T08:47:33.661Z,7.60
2022-12-20T08:50:01.901Z,7.60
2022-12-20T08:52:31.374Z,7.60
2022-12-20T08:55:01.708Z,7.60
2022-12-20T08:57:29.840Z,7.60
2022-12-20T08:59:57.832Z,7.60
2022-12-20T09:02:26.057Z,7.70
2022-12-20T09:04:54.147Z,7.70
2022-12-20T09:07:22.158Z,7.70
2022-12-20T09:09:51.498Z,7.70
2022-12-20T09:12:19.499Z,7.70
2022-12-20T09:14:47.631Z,7.80
2022-12-20T09:17:15.626Z,7.80
2022-12-20T09:19:43.605Z,7.80
2022-12-20T09:22:11.626Z,7.90
2022-12-20T09:24:39.899Z,7.90
2022-12-20T09:27:09.270Z,7.90
2022-12-20T09:29:37.377Z,7.90
2022-12-20T09:32:05.627Z,8.00
2022-12-20T09:34:33.718Z,8.00
2022-12-20T09:37:01.738Z,8.00
2022-12-20T09:39:29.761Z,8.00
2022-12-20T09:41:59.210Z,8.00
2022-12-20T09:44:31.742Z,8.00
2022-12-20T09:47:09.781Z,8.10
2022-12-20T09:49:43.030Z,8.10
2022-12-20T09:52:36.047Z,8.10
2022-12-20T09:55:17.182Z,8.10
2022-12-20T09:57:57.095Z,8.10
2022-12-20T10:00:26.729Z,8.10
2022-12-20T10:03:02.137Z,8.20
2022-12-20T10:05:43.837Z,8.20
2022-12-20T10:08:24.702Z,8.20
2022-12-20T10:10:59.552Z,8.20
2022-12-20T10:13:48.488Z,8.20
2022-12-20T10:16:34.761Z,8.20
2022-12-20T10:19:30.220Z,8.20
2022-12-20T10:22:06.105Z,8.20
2022-12-20T10:24:36.635Z,8.20
2022-12-20T10:27:14.004Z,8.30
2022-12-20T10:29:42.522Z,8.30
2022-12-20T10:32:15.458Z,8.30
2022-12-20T10:34:51.739Z,8.30
2022-12-20T10:37:19.758Z,8.30
2022-12-20T10:39:51.553Z,8.30
2022-12-20T10:42:35.676Z,8.40
2022-12-20T10:45:04.500Z,8.40
2022-12-20T10:47:41.672Z,8.40
2022-12-20T10:50:15.661Z,8.40
2022-12-20T10:52:44.182Z,8.40
2022-12-20T10:55:35.944Z,8.50
2022-12-20T10:58:06.616Z,8.50
2022-12-20T11:00:35.269Z,8.60
2022-12-20T11:03:13.509Z,8.60
2022-12-20T11:05:41.777Z,8.70
2022-12-20T11:11:17.288Z,8.70
2022-12-20T11:13:46.207Z,8.70
2022-12-20T11:16:26.612Z,8.70
2022-12-20T11:19:07.952Z,8.80
2022-12-20T11:21:45.223Z,8.80
2022-12-20T11:24:22.910Z,8.80
2022-12-20T11:27:13.448Z,8.80
2022-12-20T11:30:02.969Z,8.70
2022-12-20T11:32:48.885Z,8.80
2022-12-20T11:35:23.442Z,8.70
2022-12-20T11:38:09.868Z,8.80
2022-12-20T11:40:46.575Z,8.70
2022-12-20T11:43:31.056Z,8.70
2022-12-20T11:46:14.807Z,8.70
2022-12-20T11:49:04.542Z,8.70
2022-12-20T11:51:44.635Z,8.70
2022-12-20T11:54:18.742Z,8.70
2022-12-20T11:56:49.165Z,8.70
2022-12-20T11:59:23.622Z,8.70
2022-12-20T12:01:57.849Z,8.70
2022-12-20T12:04:30.656Z,8.70
2022-12-20T12:07:04.897Z,8.70
2022-12-20T12:09:38.834Z,8.70
2022-12-20T12:12:14.844Z,8.70
2022-12-20T12:14:52.740Z,8.70
2022-12-20T12:17:28.112Z,8.70
2022-12-20T12:20:02.732Z,8.70
2022-12-20T12:22:36.954Z,8.70
2022-12-20T12:25:14.913Z,8.70
2022-12-20T12:27:43.032Z,8.70
2022-12-20T12:30:14.754Z,8.70
2022-12-20T12:32:49.125Z,8.70
2022-12-20T12:35:37.977Z,8.70
2022-12-20T12:38:24.239Z,8.70
2022-12-20T12:41:04.717Z,8.70
2022-12-20T12:43:50.329Z,8.70
2022-12-20T12:46:23.856Z,8.70
2022-12-20T12:48:58.696Z,8.70
2022-12-20T12:51:32.235Z,8.70
2022-12-20T12:54:25.623Z,8.70
2022-12-20T12:56:55.665Z,8.70
2022-12-20T12:59:46.023Z,8.70
2022-12-20T13:02:36.748Z,8.80
2022-12-20T13:05:33.691Z,8.70
2022-12-20T13:08:01.814Z,8.80
2022-12-20T13:11:09.514Z,8.80
2022-12-20T13:13:38.896Z,8.80
2022-12-20T13:17:02.732Z,8.80
2022-12-20T13:19:35.247Z,8.80
2022-12-20T13:22:21.927Z,8.80
2022-12-20T13:24:57.154Z,8.80
2022-12-20T13:27:34.455Z,8.80
2022-12-20T13:30:30.928Z,8.70
2022-12-20T13:33:22.941Z,8.80
2022-12-20T13:36:19.433Z,8.80
2022-12-20T13:38:58.689Z,8.70
2022-12-20T13:41:39.294Z,8.70
2022-12-20T13:44:34.049Z,8.70
2022-12-20T13:47:13.738Z,8.70
2022-12-20T13:49:43.688Z,8.70
2022-12-20T13:52:29.655Z,8.70
2022-12-20T13:55:00.749Z,8.70
2022-12-20T13:57:32.387Z,8.60
2022-12-20T14:00:07.483Z,8.60
2022-12-20T14:02:42.928Z,8.70
2022-12-20T14:05:17.665Z,8.60
2022-12-20T14:07:48.879Z,8.60
2022-12-20T14:10:23.909Z,8.60
2022-12-20T14:12:52.834Z,8.60
2022-12-20T14:15:26.067Z,8.60
2022-12-20T14:17:55.642Z,8.60
2022-12-20T14:20:30.212Z,8.60
2022-12-20T14:23:05.823Z,8.60
2022-12-20T14:25:39.010Z,8.60
2022-12-20T14:28:11.314Z,8.60
2022-12-20T14:30:44.665Z,8.60
2022-12-20T14:33:22.091Z,8.50
2022-12-20T14:35:51.783Z,8.60
2022-12-20T14:38:23.869Z,8.50
2022-12-20T14:40:54.189Z,8.50
2022-12-20T14:43:28.664Z,8.50
2022-12-20T14:46:16.642Z,8.50
2022-12-20T14:48:47.199Z,8.50
2022-12-20T14:51:21.588Z,8.50
2022-12-20T14:53:51.362Z,8.50
2022-12-20T14:56:27.863Z,8.50
2022-12-20T14:59:06.141Z,8.50
2022-12-20T15:01:38.511Z,8.50
2022-12-20T15:04:24.824Z,8.50
2022-12-20T15:06:53.887Z,8.50
2022-12-20T15:09:22.513Z,8.40
2022-12-20T15:11:51.635Z,8.40
2022-12-20T15:14:29.697Z,8.40
2022-12-20T15:16:58.366Z,8.40
2022-12-20T15:19:27.957Z,8.40
2022-12-20T15:21:56.198Z,8.40
2022-12-20T15:24:26.534Z,8.40
2022-12-20T15:26:54.650Z,8.40
2022-12-20T15:29:25.082Z,8.40
2022-12-20T15:31:59.134Z,8.40
2022-12-20T15:34:32.038Z,8.40
2022-12-20T15:37:02.442Z,8.40
2022-12-20T15:39:31.000Z,8.40
2022-12-20T15:42:01.586Z,8.40
2022-12-20T15:44:31.585Z,8.40
2022-12-20T15:46:59.688Z,8.40
2022-12-20T15:49:31.578Z,8.40
2022-12-20T15:51:59.900Z,8.40
2022-12-20T15:54:30.544Z,8.40
2022-12-20T15:57:00.384Z,8.40
2022-12-20T16:00:00.523Z,8.40
2022-12-20T16:02:22.994Z,8.40
2022-12-20T16:04:52.752Z,8.40
2022-12-20T16:07:21.107Z,8.40
2022-12-20T16:09:49.187Z,8.40
2022-12-20T16:12:19.146Z,8.40
2022-12-20T16:14:47.497Z,8.40
2022-12-20T16:17:15.950Z,8.40
2022-12-20T16:19:44.718Z,8.40
2022-12-20T16:22:17.197Z,8.40
2022-12-20T16:24:45.721Z,8.40
2022-12-20T16:27:13.962Z,8.40
2022-12-20T16:29:42.072Z,8.40
2022-12-20T16:32:15.535Z,8.40
2022-12-20T16:34:43.775Z,8.40
2022-12-20T16:37:12.769Z,8.40
2022-12-20T16:39:42.203Z,8.40
2022-12-20T16:42:14.766Z,8.40
2022-12-20T16:44:44.835Z,8.40
2022-12-20T16:47:14.353Z,8.40
2022-12-20T16:49:49.656Z,8.40
2022-12-20T16:52:21.924Z,8.50
2022-12-20T16:54:52.062Z,8.40
2022-12-20T16:57:21.308Z,8.50
2022-12-20T16:59:49.512Z,8.40
2022-12-20T17:02:25.554Z,8.50
2022-12-20T17:04:53.669Z,8.50
2022-12-20T17:07:21.710Z,8.50
2022-12-20T17:09:51.378Z,8.50
2022-12-20T17:12:22.089Z,8.40
2022-12-20T17:14:50.537Z,8.40
2022-12-20T17:17:18.588Z,8.40
2022-12-20T17:19:46.581Z,8.40
2022-12-20T17:22:24.106Z,8.40
2022-12-20T17:24:53.489Z,8.40
2022-12-20T17:27:21.497Z,8.40
2022-12-20T17:29:50.723Z,8.40
2022-12-20T17:32:22.407Z,8.40
2022-12-20T17:34:50.801Z,8.50
2022-12-20T17:37:18.939Z,8.40
2022-12-20T17:39:47.027Z,8.40
2022-12-20T17:42:16.765Z,8.40
2022-12-20T17:44:46.162Z,8.50
2022-12-20T17:47:14.443Z,8.50
2022-12-20T17:49:42.455Z,8.50
2022-12-20T17:52:14.872Z,8.50
2022-12-20T17:54:43.119Z,8.50
2022-12-20T17:57:15.375Z,8.50
2022-12-20T17:59:45.214Z,8.50
2022-12-20T18:02:21.457Z,8.60
2022-12-20T18:04:49.977Z,8.50
2022-12-20T18:07:18.172Z,8.50
2022-12-20T18:09:48.718Z,8.50
2022-12-20T18:12:17.653Z,8.50
2022-12-20T18:14:49.373Z,8.50
2022-12-20T18:17:17.590Z,8.50
2022-12-20T18:19:45.808Z,8.50
2022-12-20T18:22:15.235Z,8.50
2022-12-20T18:24:43.251Z,8.50
2022-12-20T18:27:11.287Z,8.50
2022-12-20T18:29:39.635Z,8.50
2022-12-20T18:32:09.054Z,8.50
2022-12-20T18:34:37.194Z,8.60
2022-12-20T18:37:05.696Z,8.60
2022-12-20T18:39:34.096Z,8.50
2022-12-20T18:42:02.099Z,8.50
2022-12-20T18:44:35.660Z,8.60
2022-12-20T18:47:04.064Z,8.60
2022-12-20T18:49:33.531Z,8.60
2022-12-20T18:52:01.619Z,8.60
2022-12-20T18:54:30.871Z,8.60
2022-12-20T18:56:59.260Z,8.60
2022-12-20T18:59:27.284Z,8.60
2022-12-20T19:01:55.751Z,8.60
2022-12-20T19:04:25.063Z,8.60
2022-12-20T19:06:55.053Z,8.60
2022-12-20T19:09:23.319Z,8.60
2022-12-20T19:11:56.586Z,8.60
2022-12-20T19:14:25.009Z,8.70
2022-12-20T19:16:54.589Z,8.60
2022-12-20T19:19:22.826Z,8.60
2022-12-20T19:21:50.841Z,8.60
2022-12-20T19:24:21.354Z,8.70
2022-12-20T19:26:49.527Z,8.70
2022-12-20T19:29:17.547Z,8.60
2022-12-20T19:31:45.684Z,8.60
2022-12-20T19:34:15.060Z,8.60
2022-12-20T19:36:44.561Z,8.70
2022-12-20T19:39:17.518Z,8.70
2022-12-20T19:42:13.893Z,8.60
2022-12-20T19:44:36.061Z,8.70
2022-12-20T19:47:07.208Z,8.70
2022-12-20T19:49:36.717Z,8.60
2022-12-20T19:52:05.717Z,8.60
2022-12-20T19:54:33.962Z,8.60
2022-12-20T19:57:03.459Z,8.60
2022-12-20T19:59:31.473Z,8.60
2022-12-20T20:01:59.642Z,8.60
2022-12-20T20:04:27.764Z,8.60
2022-12-20T20:06:56.390Z,8.60
2022-12-20T20:09:24.537Z,8.60
2022-12-20T20:11:53.105Z,8.60
2022-12-20T20:14:22.832Z,8.60
2022-12-20T20:16:51.074Z,8.60
2022-12-20T20:19:20.446Z,8.60
2022-12-20T20:21:49.210Z,8.60
2022-12-20T20:24:17.619Z,8.60
2022-12-20T20:26:45.863Z,8.50
2022-12-20T20:29:14.006Z,8.50
2022-12-20T20:31:43.503Z,8.60
2022-12-20T20:34:12.317Z,8.50
2022-12-20T20:36:40.401Z,8.50
2022-12-20T20:39:08.402Z,8.50
2022-12-20T20:41:36.445Z,8.50
2022-12-20T20:44:04.564Z,8.50
2022-12-20T20:46:32.700Z,8.50
2022-12-20T20:49:02.128Z,8.50
2022-12-20T20:51:30.180Z,8.50
2022-12-20T20:53:58.378Z,8.50
2022-12-20T20:56:26.506Z,8.50
2022-12-20T20:58:57.633Z,8.50
2022-12-20T21:01:29.177Z,8.50
2022-12-20T21:03:58.157Z,8.50
2022-12-20T21:06:40.400Z,8.50
2022-12-20T21:09:09.540Z,8.50
2022-12-20T21:11:37.827Z,8.50
2022-12-20T21:14:05.875Z,8.50
2022-12-20T21:16:33.910Z,8.50
2022-12-20T21:19:02.062Z,8.50
2022-12-20T21:21:31.409Z,8.50
2022-12-20T21:23:59.425Z,8.50
2022-12-20T21:26:27.420Z,8.50
2022-12-20T21:28:58.226Z,8.50
2022-12-20T21:31:26.524Z,8.50
2022-12-20T21:33:55.329Z,8.50
2022-12-20T21:36:23.458Z,8.50
2022-12-20T21:38:54.471Z,8.50
2022-12-20T21:41:24.156Z,8.50
2022-12-20T21:43:52.644Z,8.50
2022-12-20T21:46:21.594Z,8.50
2022-12-20T21:48:49.689Z,8.50
2022-12-20T21:51:20.651Z,8.50
2022-12-20T21:53:50.742Z,8.50
2022-12-20T21:56:21.313Z,8.50
2022-12-20T21:58:49.830Z,8.50
2022-12-20T22:01:20.104Z,8.50
2022-12-20T22:03:50.924Z,8.50
2022-12-20T22:06:19.050Z,8.50
2022-12-20T22:08:47.077Z,8.50
2022-12-20T22:11:16.781Z,8.50
2022-12-20T22:13:46.925Z,8.50
2022-12-20T22:16:17.191Z,8.50
2022-12-20T22:18:49.105Z,8.50
2022-12-20T22:21:17.936Z,8.50
2022-12-20T22:23:45.943Z,8.50
2022-12-20T22:26:15.295Z,8.40
2022-12-20T22:28:48.513Z,8.40
2022-12-20T22:31:18.136Z,8.40
2022-12-20T22:33:46.599Z,8.40
2022-12-20T22:36:16.334Z,8.40
2022-12-20T22:38:44.745Z,8.40
2022-12-20T22:41:15.197Z,8.40
2022-12-20T22:43:44.551Z,8.40
2022-12-20T22:46:15.001Z,8.40
2022-12-20T22:48:43.280Z,8.40
2022-12-20T22:51:12.913Z,8.40
2022-12-20T22:53:41.670Z,8.40
2022-12-20T22:56:10.607Z,8.40
2022-12-20T22:58:39.831Z,8.40
2022-12-20T23:01:10.400Z,8.40
2022-12-20T23:03:40.267Z,8.40
2022-12-20T23:06:09.554Z,8.40
2022-12-20T23:08:38.584Z,8.40
2022-12-20T23:11:31.323Z,8.50
2022-12-20T23:14:16.847Z,8.50
2022-12-20T23:16:45.026Z,8.50
2022-12-20T23:19:14.499Z,8.50
2022-12-20T23:21:59.943Z,8.50
2022-12-20T23:24:27.970Z,8.50
2022-12-20T23:26:55.977Z,8.50
2022-12-20T23:29:24.009Z,8.50
2022-12-20T23:31:52.122Z,8.60
2022-12-20T23:34:21.684Z,8.50
2022-12-20T23:36:49.848Z,8.50
2022-12-20T23:39:17.837Z,8.60
2022-12-20T23:41:46.302Z,8.60
2022-12-20T23:44:14.282Z,8.50
2022-12-20T23:46:42.278Z,8.50
2022-12-20T23:49:10.283Z,8.60
2022-12-20T23:51:39.648Z,8.60
2022-12-20T23:54:07.715Z,8.60
2022-12-20T23:56:35.730Z,8.60
2022-12-20T23:59:03.871Z,8.60
